Time;durP1;ratioP1;P1;durP2;ratioP2;P2;SDS_P1;SDS_P2;PMS_P1;PMS_P2;Temp;Humidity;BMP_temperature;BMP_pressure;BME280_temperature;BME280_humidity;BME280_pressure;Samples;Min_cycle;Max_cycle;Signal;HPM_P1;HPM_P2
2023/09/07 00:02:16;;;;;;;;;;;;;;;;;;5048135;28;20278;-63
2023/09/07 00:04:43;;;;;;;;;;;;;;;;;;5039775;28;20108;-62
2023/09/07 00:07:09;;;;;;;;;;;;;;;;;;5049031;28;20294;-62
2023/09/07 00:09:35;;;;;;;;;;;;;;;;;;5046410;28;20502;-62
2023/09/07 00:12:00;;;;;;;;;;;;;;;;;;5052201;28;19935;-62
2023/09/07 00:14:26;;;;;;;;;;;;;;;;;;5046693;28;19921;-62
2023/09/07 00:16:52;;;;;;;;;;;;;;;;;;5048195;28;19935;-62
2023/09/07 00:19:18;;;;;;;;;;;;;;;;;;5034183;28;19925;-62
2023/09/07 00:21:44;;;;;;;;;;;;;;;;;;5049497;28;19924;-62
2023/09/07 00:24:10;;;;;;;;;;;;;;;;;;5035472;28;19921;-62
2023/09/07 00:26:36;;;;;;;;;;;;;;;;;;5049842;28;20015;-62
2023/09/07 00:29:02;;;;;;;;;;;;;;;;;;5048376;28;19931;-62
2023/09/07 00:31:28;;;;;;;;;;;;;;;;;;5048379;28;19924;-62
2023/09/07 00:33:54;;;;;;;;;;;;;;;;;;5049481;28;19975;-62
2023/09/07 00:36:20;;;;;;;;;;;;;;;;;;5048376;28;19944;-62
2023/09/07 00:38:45;;;;;;;;;;;;;;;;;;5049111;28;19928;-62
2023/09/07 00:41:11;;;;;;;;;;;;;;;;;;5048338;28;20559;-62
2023/09/07 00:43:39;;;;;;;;;;;;;;;;;;5045989;28;19996;-62
2023/09/07 00:46:05;;;;;;;;;;;;;;;;;;5046255;28;19920;-62
2023/09/07 00:48:31;;;;;;;;;;;;;;;;;;5049076;28;19947;-62
2023/09/07 00:50:57;;;;;;;;;;;;;;;;;;5048498;28;19932;-62
2023/09/07 00:53:24;;;;;;;;;;;;;;;;;;5047580;28;19933;-62
2023/09/07 00:55:50;;;;;;;;;;;;;;;;;;5054393;28;19975;-62
2023/09/07 00:58:16;;;;;;;;;;;;;;;;;;5041990;28;20339;-62
2023/09/07 01:00:42;;;;;;;;;;;;;;;;;;5050828;28;19924;-62
2023/09/07 01:03:09;;;;;;;;;;;;;;;;;;5034038;28;19921;-62
2023/09/07 01:05:35;;;;;;;;;;;;;;;;;;5048079;28;19924;-62
2023/09/07 01:08:00;;;;;;;;;;;;;;;;;;5081670;22;20031;-71
2023/09/07 01:10:26;;;;;;;;;;;;;;;;;;5028709;28;20346;-70
2023/09/07 01:12:52;;;;;;;;;;;;;;;;;;5020713;28;19928;-70
2023/09/07 01:15:18;;;;;;;;;;;;;;;;;;5033087;28;19933;-71
2023/09/07 01:17:44;;;;;;;;;;;;;;;;;;5039500;28;20333;-70
2023/09/07 01:20:10;;;;;;;;;;;;;;;;;;5017510;28;19921;-70
2023/09/07 01:22:36;;;;;;;;;;;;;;;;;;5042142;28;19931;-70
2023/09/07 01:25:02;;;;;;;;;;;;;;;;;;5008783;28;20336;-71
2023/09/07 01:27:28;;;;;;;;;;;;;;;;;;5032357;28;19921;-70
2023/09/07 01:29:53;;;;;;;;;;;;;;;;;;5033258;28;19921;-70
2023/09/07 01:32:19;;;;;;;;;;;;;;;;;;5014588;28;20350;-70
2023/09/07 01:34:45;;;;;;;;;;;;;;;;;;5014002;28;20020;-70
2023/09/07 01:37:11;;;;;;;;;;;;;;;;;;5027840;28;19921;-71
2023/09/07 01:39:37;;;;;;;;;;;;;;;;;;5021182;28;19921;-71
2023/09/07 01:42:03;;;;;;;;;;;;;;;;;;5027377;28;19964;-70
2023/09/07 01:44:29;;;;;;;;;;;;;;;;;;5028735;28;19925;-70
2023/09/07 01:46:55;;;;;;;;;;;;;;;;;;5010156;28;19921;-70
2023/09/07 01:49:21;;;;;;;;;;;;;;;;;;5017062;28;20067;-70
2023/09/07 01:51:47;;;;;;;;;;;;;;;;;;5012588;28;19925;-70
2023/09/07 01:54:13;;;;;;;;;;;;;;;;;;5024111;28;19925;-70
2023/09/07 01:56:41;;;;;;;;;;;;;;;;;;5025148;28;19931;-70
2023/09/07 01:59:07;;;;;;;;;;;;;;;;;;5031662;28;19935;-71
2023/09/07 02:01:36;;;;;;;;;;;;;;;;;;5032305;28;20341;-70
2023/09/07 02:04:02;;;;;;;;;;;;;;;;;;5010366;28;19929;-70
2023/09/07 02:06:28;;;;;;;;;;;;;;;;;;5033571;28;19948;-70
2023/09/07 02:08:54;;;;;;;;;;;;;;;;;;5031015;28;20359;-70
2023/09/07 02:11:20;;;;;;;;;;;;;;;;;;5012500;28;19925;-70
2023/09/07 02:13:46;;;;;;;;;;;;;;;;;;5010098;28;19925;-70
2023/09/07 02:16:12;;;;;;;;;;;;;;;;;;5030023;28;19925;-70
2023/09/07 02:18:39;;;;;;;;;;;;;;;;;;5015153;28;19921;-70
2023/09/07 02:21:05;;;;;;;;;;;;;;;;;;5033114;28;19965;-70
2023/09/07 02:23:31;;;;;;;;;;;;;;;;;;5037237;28;20072;-71
2023/09/07 02:25:57;;;;;;;;;;;;;;;;;;5011059;28;19929;-70
2023/09/07 02:28:23;;;;;;;;;;;;;;;;;;5039896;28;19925;-70
2023/09/07 02:30:49;;;;;;;;;;;;;;;;;;5022308;28;19971;-70
2023/09/07 02:33:15;;;;;;;;;;;;;;;;;;5023992;28;20318;-70
2023/09/07 02:35:41;;;;;;;;;;;;;;;;;;5031728;28;19933;-72
2023/09/07 02:38:07;;;;;;;;;;;;;;;;;;5048662;28;20056;-70
2023/09/07 02:40:33;;;;;;;;;;;;;;;;;;5025011;28;20314;-70
2023/09/07 02:42:59;;;;;;;;;;;;;;;;;;4998852;28;19927;-70
2023/09/07 02:45:24;;;;;;;;;;;;;;;;;;5028040;28;19925;-70
2023/09/07 02:47:52;;;;;;;;;;;;;;;;;;5024468;28;20315;-70
2023/09/07 02:50:18;;;;;;;;;;;;;;;;;;5016998;28;19921;-70
2023/09/07 02:52:43;;;;;;;;;;;;;;;;;;5005326;28;19931;-71
2023/09/07 02:55:10;;;;;;;;;;;;;;;;;;5022285;28;19964;-71
2023/09/07 02:57:36;;;;;;;;;;;;;;;;;;5012840;28;20388;-71
2023/09/07 03:00:09;;;;;;;;;;;;;;;;;;5033169;28;19921;-70
2023/09/07 03:02:35;;;;;;;;;;;;;;;;;;5032631;28;19925;-70
2023/09/07 03:05:01;;;;;;;;;;;;;;;;;;5001986;28;20297;-70
2023/09/07 03:07:27;;;;;;;;;;;;;;;;;;5027960;28;19924;-70
2023/09/07 03:09:53;;;;;;;;;;;;;;;;;;5029116;28;20366;-70
2023/09/07 03:12:19;;;;;;;;;;;;;;;;;;5016230;28;19935;-71
2023/09/07 03:14:45;;;;;;;;;;;;;;;;;;5037590;28;19933;-70
2023/09/07 03:17:11;;;;;;;;;;;;;;;;;;5017545;28;20377;-71
2023/09/07 03:19:37;;;;;;;;;;;;;;;;;;5036128;28;19974;-70
2023/09/07 03:22:03;;;;;;;;;;;;;;;;;;5028730;28;19932;-70
2023/09/07 03:24:29;;;;;;;;;;;;;;;;;;5035389;28;19976;-70
2023/09/07 03:26:55;;;;;;;;;;;;;;;;;;5047249;28;19940;-70
2023/09/07 03:29:21;;;;;;;;;;;;;;;;;;5035142;28;19943;-70
2023/09/07 03:31:47;;;;;;;;;;;;;;;;;;5047159;28;20358;-70
2023/09/07 03:34:13;;;;;;;;;;;;;;;;;;5022888;28;19983;-70
2023/09/07 03:36:39;;;;;;;;;;;;;;;;;;5025313;28;19925;-71
2023/09/07 03:39:07;;;;;;;;;;;;;;;;;;5015875;28;19925;-70
2023/09/07 03:41:34;;;;;;;;;;;;;;;;;;5037687;28;19936;-71
2023/09/07 03:43:59;;;;;;;;;;;;;;;;;;5044427;28;19925;-71
2023/09/07 03:46:25;;;;;;;;;;;;;;;;;;5046983;28;20007;-71
2023/09/07 03:48:51;;;;;;;;;;;;;;;;;;5032529;28;19929;-70
2023/09/07 03:51:17;;;;;;;;;;;;;;;;;;5014803;28;20082;-70
2023/09/07 03:53:43;;;;;;;;;;;;;;;;;;5023650;28;20362;-70
2023/09/07 03:56:09;;;;;;;;;;;;;;;;;;5020231;28;20395;-70
2023/09/07 03:58:35;;;;;;;;;;;;;;;;;;5029133;28;19960;-71
2023/09/07 04:01:01;;;;;;;;;;;;;;;;;;5017251;28;19925;-70
2023/09/07 04:03:27;;;;;;;;;;;;;;;;;;5029292;28;20374;-70
2023/09/07 04:05:52;;;;;;;;;;;;;;;;;;5020265;28;19921;-71
2023/09/07 04:08:18;;;;;;;;;;;;;;;;;;5046399;28;19925;-70
2023/09/07 04:10:44;;;;;;;;;;;;;;;;;;5025258;28;20154;-70
2023/09/07 04:13:10;;;;;;;;;;;;;;;;;;5018764;28;20085;-70
2023/09/07 04:15:36;;;;;;;;;;;;;;;;;;5020381;28;20075;-70
2023/09/07 04:18:02;;;;;;;;;;;;;;;;;;5031097;28;20490;-71
2023/09/07 04:20:29;;;;;;;;;;;;;;;;;;5032959;28;19925;-70
2023/09/07 04:22:55;;;;;;;;;;;;;;;;;;5033707;28;19932;-70
2023/09/07 04:25:21;;;;;;;;;;;;;;;;;;5014669;28;19921;-70
2023/09/07 04:27:47;;;;;;;;;;;;;;;;;;5019118;28;19932;-71
2023/09/07 04:30:13;;;;;;;;;;;;;;;;;;5037537;28;19958;-71
2023/09/07 04:32:38;;;;;;;;;;;;;;;;;;4997139;28;19921;-71
2023/09/07 04:35:04;;;;;;;;;;;;;;;;;;5016035;28;20006;-71
2023/09/07 04:37:30;;;;;;;;;;;;;;;;;;5012446;28;19931;-71
2023/09/07 04:39:56;;;;;;;;;;;;;;;;;;5028249;28;19925;-71
2023/09/07 04:42:22;;;;;;;;;;;;;;;;;;5012061;28;19929;-71
2023/09/07 04:44:48;;;;;;;;;;;;;;;;;;5022226;28;19920;-70
2023/09/07 04:47:15;;;;;;;;;;;;;;;;;;5035443;28;20416;-70
2023/09/07 04:49:41;;;;;;;;;;;;;;;;;;5040094;28;20000;-71
2023/09/07 04:52:08;;;;;;;;;;;;;;;;;;5016258;28;20425;-70
2023/09/07 04:54:34;;;;;;;;;;;;;;;;;;5046630;28;19949;-71
2023/09/07 04:57:00;;;;;;;;;;;;;;;;;;5014382;28;19922;-70
2023/09/07 04:59:26;;;;;;;;;;;;;;;;;;5024181;28;19925;-70
2023/09/07 05:01:52;;;;;;;;;;;;;;;;;;5008246;28;19936;-71
2023/09/07 05:04:18;;;;;;;;;;;;;;;;;;5041094;28;20286;-70
2023/09/07 05:06:44;;;;;;;;;;;;;;;;;;5031346;28;19921;-71
2023/09/07 05:09:10;;;;;;;;;;;;;;;;;;5023486;28;19936;-70
2023/09/07 05:11:36;;;;;;;;;;;;;;;;;;5040870;28;19987;-70
2023/09/07 05:14:01;;;;;;;;;;;;;;;;;;5006141;28;19932;-70
2023/09/07 05:16:27;;;;;;;;;;;;;;;;;;5038686;28;20600;-71
2023/09/07 05:18:53;;;;;;;;;;;;;;;;;;5019477;28;20375;-70
2023/09/07 05:21:19;;;;;;;;;;;;;;;;;;5033980;28;19995;-71
2023/09/07 05:23:45;;;;;;;;;;;;;;;;;;5008987;28;19925;-71
2023/09/07 05:26:11;;;;;;;;;;;;;;;;;;5014599;28;20328;-71
2023/09/07 05:28:37;;;;;;;;;;;;;;;;;;5026485;28;19925;-70
2023/09/07 05:31:03;;;;;;;;;;;;;;;;;;5014802;28;19924;-71
2023/09/07 05:33:29;;;;;;;;;;;;;;;;;;5032153;28;20004;-70
2023/09/07 05:35:55;;;;;;;;;;;;;;;;;;5017710;28;20039;-70
2023/09/07 05:38:21;;;;;;;;;;;;;;;;;;5012704;28;19925;-71
2023/09/07 05:40:50;;;;;;;;;;;;;;;;;;5031220;28;19928;-72
2023/09/07 05:43:16;;;;;;;;;;;;;;;;;;5040392;28;19944;-71
2023/09/07 05:45:42;;;;;;;;;;;;;;;;;;5009781;28;19921;-72
2023/09/07 05:48:07;;;;;;;;;;;;;;;;;;5014556;28;19925;-71
2023/09/07 05:50:33;;;;;;;;;;;;;;;;;;5032247;28;20375;-70
2023/09/07 05:52:59;;;;;;;;;;;;;;;;;;4997033;28;19921;-70
2023/09/07 05:55:25;;;;;;;;;;;;;;;;;;5014427;28;19929;-70
2023/09/07 05:57:51;;;;;;;;;;;;;;;;;;5021402;28;19932;-71
2023/09/07 06:00:17;;;;;;;;;;;;;;;;;;4989861;28;19921;-71
2023/09/07 06:02:43;;;;;;;;;;;;;;;;;;5014241;28;19921;-71
2023/09/07 06:05:09;;;;;;;;;;;;;;;;;;5032581;28;19921;-71
2023/09/07 06:07:35;;;;;;;;;;;;;;;;;;5007345;28;19925;-70
2023/09/07 06:10:01;;;;;;;;;;;;;;;;;;5034229;28;19975;-70
2023/09/07 06:12:27;;;;;;;;;;;;;;;;;;4997840;28;19925;-71
2023/09/07 06:14:53;;;;;;;;;;;;;;;;;;5013449;28;20488;-70
2023/09/07 06:17:19;;;;;;;;;;;;;;;;;;5007013;28;19921;-70
2023/09/07 06:19:45;;;;;;;;;;;;;;;;;;5033379;28;19925;-70
2023/09/07 06:22:11;;;;;;;;;;;;;;;;;;5008647;28;20363;-70
2023/09/07 06:24:37;;;;;;;;;;;;;;;;;;5014551;28;20334;-70
2023/09/07 06:27:03;;;;;;;;;;;;;;;;;;5012639;28;19921;-70
2023/09/07 06:29:28;;;;;;;;;;;;;;;;;;5016533;28;19921;-70
2023/09/07 06:31:54;;;;;;;;;;;;;;;;;;5010921;28;19959;-71
2023/09/07 06:34:20;;;;;;;;;;;;;;;;;;5008015;28;19925;-71
2023/09/07 06:36:46;;;;;;;;;;;;;;;;;;5025250;28;19964;-71
2023/09/07 06:39:12;;;;;;;;;;;;;;;;;;5011536;28;19948;-70
2023/09/07 06:41:38;;;;;;;;;;;;;;;;;;5031988;28;20401;-71
2023/09/07 06:44:04;;;;;;;;;;;;;;;;;;5029523;28;19931;-71
2023/09/07 06:46:30;;;;;;;;;;;;;;;;;;4998776;28;19920;-71
2023/09/07 06:48:56;;;;;;;;;;;;;;;;;;5009810;28;19921;-71
2023/09/07 06:51:21;;;;;;;;;;;;;;;;;;5013257;28;19929;-71
2023/09/07 06:53:47;;;;;;;;;;;;;;;;;;5013183;28;20263;-71
2023/09/07 06:56:13;;;;;;;;;;;;;;;;;;5012949;28;19929;-71
2023/09/07 06:58:39;;;;;;;;;;;;;;;;;;5013068;28;19921;-71
2023/09/07 07:01:06;;;;;;;;;;;;;;;;;;5009180;28;19925;-72
2023/09/07 07:03:31;;;;;;;;;;;;;;;;;;5038918;28;19929;-71
2023/09/07 07:05:57;;;;;;;;;;;;;;;;;;5008221;28;20524;-71
2023/09/07 07:08:23;;;;;;;;;;;;;;;;;;5028912;28;19925;-71
2023/09/07 07:10:49;;;;;;;;;;;;;;;;;;5030429;28;19944;-71
2023/09/07 07:13:15;;;;;;;;;;;;;;;;;;5025028;28;20007;-71
2023/09/07 07:15:41;;;;;;;;;;;;;;;;;;5008533;28;20064;-72
2023/09/07 07:18:09;;;;;;;;;;;;;;;;;;5029486;28;20260;-71
2023/09/07 07:20:34;;;;;;;;;;;;;;;;;;5019511;28;20082;-71
2023/09/07 07:23:00;;;;;;;;;;;;;;;;;;5017089;28;20832;-71
2023/09/07 07:25:26;;;;;;;;;;;;;;;;;;5002616;28;19920;-71
2023/09/07 07:27:52;;;;;;;;;;;;;;;;;;5018085;28;19925;-71
2023/09/07 07:30:18;;;;;;;;;;;;;;;;;;5040171;28;20315;-71
2023/09/07 07:32:44;;;;;;;;;;;;;;;;;;5018091;28;20015;-71
2023/09/07 07:35:10;;;;;;;;;;;;;;;;;;5021174;28;20003;-71
2023/09/07 07:37:36;;;;;;;;;;;;;;;;;;5034543;28;20293;-71
2023/09/07 07:40:02;;;;;;;;;;;;;;;;;;5034935;28;19921;-71
2023/09/07 07:42:28;;;;;;;;;;;;;;;;;;5019032;28;20294;-71
2023/09/07 07:44:54;;;;;;;;;;;;;;;;;;5020885;28;19924;-71
2023/09/07 07:47:20;;;;;;;;;;;;;;;;;;5019332;28;19976;-71
2023/09/07 07:49:46;;;;;;;;;;;;;;;;;;5003817;28;19920;-71
2023/09/07 07:52:12;;;;;;;;;;;;;;;;;;5036841;28;19925;-70
2023/09/07 07:54:38;;;;;;;;;;;;;;;;;;5021338;28;19925;-70
2023/09/07 07:57:04;;;;;;;;;;;;;;;;;;5018496;28;19921;-70
2023/09/07 07:59:30;;;;;;;;;;;;;;;;;;5036801;28;20310;-71
2023/09/07 08:01:56;;;;;;;;;;;;;;;;;;5012052;28;19925;-70
2023/09/07 08:04:22;;;;;;;;;;;;;;;;;;5018043;28;19928;-70
2023/09/07 08:06:48;;;;;;;;;;;;;;;;;;5018689;28;20074;-70
2023/09/07 08:09:14;;;;;;;;;;;;;;;;;;5021438;28;19924;-70
2023/09/07 08:11:40;;;;;;;;;;;;;;;;;;5029104;28;20295;-71
2023/09/07 08:14:05;;;;;;;;;;;;;;;;;;5011311;28;20288;-71
2023/09/07 08:16:31;;;;;;;;;;;;;;;;;;5012807;28;19933;-71
2023/09/07 08:18:57;;;;;;;;;;;;;;;;;;5009031;28;19921;-71
2023/09/07 08:21:23;;;;;;;;;;;;;;;;;;5041150;28;20302;-71
2023/09/07 08:23:49;;;;;;;;;;;;;;;;;;5016164;28;19968;-71
2023/09/07 08:26:15;;;;;;;;;;;;;;;;;;5030547;28;19974;-71
2023/09/07 08:28:41;;;;;;;;;;;;;;;;;;5018388;28;19921;-71
2023/09/07 08:31:07;;;;;;;;;;;;;;;;;;5010696;28;19936;-71
2023/09/07 08:33:39;;;;;;;;;;;;;;;;;;5012849;28;20012;-71
2023/09/07 08:36:05;;;;;;;;;;;;;;;;;;5013939;28;19995;-71
2023/09/07 08:38:31;;;;;;;;;;;;;;;;;;5015655;28;19971;-71
2023/09/07 08:40:57;;;;;;;;;;;;;;;;;;5015996;28;19925;-71
2023/09/07 08:43:24;;;;;;;;;;;;;;;;;;4993872;28;19921;-72
2023/09/07 08:45:50;;;;;;;;;;;;;;;;;;5026361;28;19925;-71
2023/09/07 08:48:18;;;;;;;;;;;;;;;;;;5011754;28;19921;-71
2023/09/07 08:50:49;;;;;;;;;;;;;;;;;;5031144;28;19921;-71
2023/09/07 08:53:20;;;;;;;;;;;;;;;;;;5023792;28;19956;-71
2023/09/07 08:55:51;;;;;;;;;;;;;;;;;;5007561;28;19925;-71
2023/09/07 08:58:17;;;;;;;;;;;;;;;;;;5013913;28;19925;-72
2023/09/07 09:00:43;;;;;;;;;;;;;;;;;;5033345;28;19928;-72
2023/09/07 09:03:09;;;;;;;;;;;;;;;;;;5031291;28;19921;-72
2023/09/07 09:05:37;;;;;;;;;;;;;;;;;;5027130;28;19930;-72
2023/09/07 09:08:06;;;;;;;;;;;;;;;;;;5007193;28;20012;-71
2023/09/07 09:10:32;;;;;;;;;;;;;;;;;;5031129;28;20306;-71
2023/09/07 09:12:59;;;;;;;;;;;;;;;;;;5012516;28;19932;-71
2023/09/07 09:15:28;;;;;;;;;;;;;;;;;;5032235;28;20200;-72
2023/09/07 09:17:54;;;;;;;;;;;;;;;;;;5012833;28;19978;-71
2023/09/07 09:20:20;;;;;;;;;;;;;;;;;;5007182;28;19921;-71
2023/09/07 09:22:45;;;;;;;;;;;;;;;;;;5006532;28;19929;-72
2023/09/07 09:25:14;;;;;;;;;;;;;;;;;;5020215;28;19931;-71
2023/09/07 09:27:40;;;;;;;;;;;;;;;;;;5025051;28;20268;-70
2023/09/07 09:30:06;;;;;;;;;;;;;;;;;;5020505;28;19928;-71
2023/09/07 09:32:35;;;;;;;;;;;;;;;;;;5010233;28;19925;-71
2023/09/07 09:35:05;;;;;;;;;;;;;;;;;;5009020;28;19929;-72
2023/09/07 09:37:34;;;;;;;;;;;;;;;;;;4996723;28;20283;-72
2023/09/07 09:40:00;;;;;;;;;;;;;;;;;;5024446;28;19928;-71
2023/09/07 09:42:26;;;;;;;;;;;;;;;;;;5016974;28;19992;-72
2023/09/07 09:44:52;;;;;;;;;;;;;;;;;;5019991;28;19964;-72
2023/09/07 09:47:18;;;;;;;;;;;;;;;;;;5012822;28;20330;-71
2023/09/07 09:49:44;;;;;;;;;;;;;;;;;;5032649;28;19921;-72
2023/09/07 09:52:12;;;;;;;;;;;;;;;;;;5043093;28;19948;-72
2023/09/07 09:54:38;;;;;;;;;;;;;;;;;;4992623;28;19952;-71
2023/09/07 09:57:05;;;;;;;;;;;;;;;;;;5028221;28;20018;-71
2023/09/07 09:59:33;;;;;;;;;;;;;;;;;;5012244;28;19986;-72
2023/09/07 10:02:02;;;;;;;;;;;;;;;;;;5012504;28;20387;-72
2023/09/07 10:04:33;;;;;;;;;;;;;;;;;;5011327;28;19929;-72
2023/09/07 10:07:05;;;;;;;;;;;;;;;;;;5009885;28;19972;-72
2023/09/07 10:09:33;;;;;;;;;;;;;;;;;;5013425;28;19929;-72
2023/09/07 10:12:04;;;;;;;;;;;;;;;;;;5012553;28;19922;-71
2023/09/07 10:14:35;;;;;;;;;;;;;;;;;;5022373;28;19929;-72
2023/09/07 10:17:04;;;;;;;;;;;;;;;;;;4998956;28;19992;-72
2023/09/07 10:19:33;;;;;;;;;;;;;;;;;;5028494;28;19928;-71
2023/09/07 10:21:59;;;;;;;;;;;;;;;;;;4998759;28;19969;-72
2023/09/07 10:24:25;;;;;;;;;;;;;;;;;;5010306;28;19971;-72
2023/09/07 10:26:51;;;;;;;;;;;;;;;;;;5022080;28;19925;-71
2023/09/07 10:29:23;;;;;;;;;;;;;;;;;;5028234;28;19921;-72
2023/09/07 10:31:56;;;;;;;;;;;;;;;;;;5041784;28;19927;-71
2023/09/07 10:34:24;;;;;;;;;;;;;;;;;;4996983;28;19921;-71
2023/09/07 10:36:54;;;;;;;;;;;;;;;;;;5010807;28;20004;-71
2023/09/07 10:39:22;;;;;;;;;;;;;;;;;;5041091;28;19925;-71
2023/09/07 10:41:48;;;;;;;;;;;;;;;;;;4997775;28;19922;-71
2023/09/07 10:44:19;;;;;;;;;;;;;;;;;;5031029;28;20367;-71
2023/09/07 10:46:45;;;;;;;;;;;;;;;;;;5028266;28;19925;-71
2023/09/07 10:49:14;;;;;;;;;;;;;;;;;;4984342;28;19921;-72
2023/09/07 10:51:42;;;;;;;;;;;;;;;;;;5010604;28;19971;-71
2023/09/07 10:54:11;;;;;;;;;;;;;;;;;;5012650;28;19996;-71
2023/09/07 10:56:40;;;;;;;;;;;;;;;;;;5049010;28;19937;-71
2023/09/07 10:59:09;;;;;;;;;;;;;;;;;;5020786;28;19925;-72
2023/09/07 11:01:35;;;;;;;;;;;;;;;;;;5013097;28;19925;-72
2023/09/07 11:04:02;;;;;;;;;;;;;;;;;;5016502;28;20422;-71
2023/09/07 11:06:30;;;;;;;;;;;;;;;;;;5014460;28;19972;-70
2023/09/07 11:09:04;;;;;;;;;;;;;;;;;;5020285;28;19929;-71
2023/09/07 11:11:30;;;;;;;;;;;;;;;;;;5022498;28;19925;-71
2023/09/07 11:13:59;;;;;;;;;;;;;;;;;;5011884;28;20367;-71
2023/09/07 11:16:26;;;;;;;;;;;;;;;;;;5009436;28;19930;-71
2023/09/07 11:18:55;;;;;;;;;;;;;;;;;;5009999;28;19932;-70
2023/09/07 11:21:22;;;;;;;;;;;;;;;;;;5025276;28;19922;-70
2023/09/07 11:23:49;;;;;;;;;;;;;;;;;;5023578;28;19944;-71
2023/09/07 11:26:17;;;;;;;;;;;;;;;;;;5032075;28;19921;-71
2023/09/07 11:28:43;;;;;;;;;;;;;;;;;;5004935;28;19922;-70
2023/09/07 11:31:09;;;;;;;;;;;;;;;;;;5030364;28;19925;-71
2023/09/07 11:33:38;;;;;;;;;;;;;;;;;;5009885;28;19925;-70
2023/09/07 11:36:13;;;;;;;;;;;;;;;;;;5032147;28;20019;-71
2023/09/07 11:38:45;;;;;;;;;;;;;;;;;;5027117;28;19921;-71
2023/09/07 11:41:11;;;;;;;;;;;;;;;;;;5027041;28;19925;-71
2023/09/07 11:43:41;;;;;;;;;;;;;;;;;;5027295;28;19921;-71
2023/09/07 11:46:10;;;;;;;;;;;;;;;;;;5022220;28;19956;-71
2023/09/07 11:48:39;;;;;;;;;;;;;;;;;;5031346;28;19925;-70
2023/09/07 11:51:05;;;;;;;;;;;;;;;;;;5013261;28;19956;-71
2023/09/07 11:53:31;;;;;;;;;;;;;;;;;;5018547;28;20367;-70
2023/09/07 11:56:00;;;;;;;;;;;;;;;;;;5019430;28;19926;-71
2023/09/07 11:58:26;;;;;;;;;;;;;;;;;;5034251;28;20616;-70
2023/09/07 12:00:52;;;;;;;;;;;;;;;;;;5006429;28;19921;-70
2023/09/07 12:03:21;;;;;;;;;;;;;;;;;;5018815;28;19967;-70
2023/09/07 12:05:49;;;;;;;;;;;;;;;;;;5016838;28;19926;-70
2023/09/07 12:08:15;;;;;;;;;;;;;;;;;;5044188;28;20009;-70
2023/09/07 12:10:41;;;;;;;;;;;;;;;;;;5017349;28;20008;-71
2023/09/07 12:13:13;;;;;;;;;;;;;;;;;;5019778;28;19922;-70
2023/09/07 12:15:45;;;;;;;;;;;;;;;;;;5017057;28;19930;-70
2023/09/07 12:18:10;;;;;;;;;;;;;;;;;;5016217;28;19932;-70
2023/09/07 12:20:39;;;;;;;;;;;;;;;;;;5012483;28;19921;-70
2023/09/07 12:23:05;;;;;;;;;;;;;;;;;;5021227;28;20004;-70
2023/09/07 12:25:32;;;;;;;;;;;;;;;;;;5028266;28;20004;-70
2023/09/07 12:27:58;;;;;;;;;;;;;;;;;;5021862;28;19972;-71
2023/09/07 12:30:27;;;;;;;;;;;;;;;;;;5017919;28;19979;-70
2023/09/07 12:32:53;;;;;;;;;;;;;;;;;;5024048;28;19921;-70
2023/09/07 12:35:21;;;;;;;;;;;;;;;;;;5029089;28;19933;-70
2023/09/07 12:37:50;;;;;;;;;;;;;;;;;;5020810;28;19932;-70
2023/09/07 12:40:27;;;;;;;;;;;;;;;;;;5029459;28;19928;-70
2023/09/07 12:42:56;;;;;;;;;;;;;;;;;;5013954;28;20047;-70
2023/09/07 12:45:22;;;;;;;;;;;;;;;;;;5019336;28;20384;-70
2023/09/07 12:47:51;;;;;;;;;;;;;;;;;;5022919;28;19921;-71
2023/09/07 12:50:23;;;;;;;;;;;;;;;;;;5024845;28;20055;-70
2023/09/07 12:52:50;;;;;;;;;;;;;;;;;;5011628;28;19974;-71
2023/09/07 12:55:22;;;;;;;;;;;;;;;;;;5003282;28;19945;-71
2023/09/07 12:57:53;;;;;;;;;;;;;;;;;;5026327;28;20432;-70
2023/09/07 13:00:22;;;;;;;;;;;;;;;;;;5024703;28;20432;-70
2023/09/07 13:02:51;;;;;;;;;;;;;;;;;;5029953;28;19921;-70
2023/09/07 13:05:17;;;;;;;;;;;;;;;;;;5019434;28;19947;-70
2023/09/07 13:07:44;;;;;;;;;;;;;;;;;;5013322;28;19925;-70
2023/09/07 13:10:10;;;;;;;;;;;;;;;;;;5040691;28;20358;-70
2023/09/07 13:12:36;;;;;;;;;;;;;;;;;;5013472;28;19932;-71
2023/09/07 13:15:02;;;;;;;;;;;;;;;;;;5041781;28;19921;-70
2023/09/07 13:17:31;;;;;;;;;;;;;;;;;;5030937;28;19927;-70
2023/09/07 13:19:57;;;;;;;;;;;;;;;;;;5031238;28;20481;-71
2023/09/07 13:24:56;;;;;;;;;;;;;;;;;;5068438;28;19924;-60
2023/09/07 13:27:22;;;;;;;;;;;;;;;;;;5070756;28;19931;-61
2023/09/07 13:29:48;;;;;;;;;;;;;;;;;;5071239;28;20326;-61
2023/09/07 13:32:14;;;;;;;;;;;;;;;;;;5053629;28;20007;-61
2023/09/07 13:34:40;;;;;;;;;;;;;;;;;;5071210;28;19927;-61
2023/09/07 13:37:06;;;;;;;;;;;;;;;;;;5053567;28;19932;-61
2023/09/07 13:39:32;;;;;;;;;;;;;;;;;;5053193;28;20538;-61
2023/09/07 13:41:58;;;;;;;;;;;;;;;;;;5049440;28;19970;-61
2023/09/07 13:44:23;;;;;;;;;;;;;;;;;;5062843;28;19921;-61
2023/09/07 13:46:49;;;;;;;;;;;;;;;;;;5071810;28;19925;-60
2023/09/07 13:49:15;;;;;;;;;;;;;;;;;;5071053;28;19920;-60
2023/09/07 13:51:41;;;;;;;;;;;;;;;;;;5074775;28;19924;-61
2023/09/07 13:54:07;;;;;;;;;;;;;;;;;;5071332;28;19950;-60
2023/09/07 13:56:33;;;;;;;;;;;;;;;;;;5052703;28;20417;-60
2023/09/07 13:58:59;;;;;;;;;;;;;;;;;;5071600;28;19956;-60
2023/09/07 14:01:25;;;;;;;;;;;;;;;;;;5071074;28;19956;-61
2023/09/07 14:03:51;;;;;;;;;;;;;;;;;;5071487;28;19947;-61
2023/09/07 14:06:17;;;;;;;;;;;;;;;;;;5070909;28;19924;-61
2023/09/07 14:08:43;;;;;;;;;;;;;;;;;;5066355;28;19959;-62
2023/09/07 14:11:09;;;;;;;;;;;;;;;;;;5066413;28;20394;-62
2023/09/07 14:13:35;;;;;;;;;;;;;;;;;;5064736;28;20308;-62
2023/09/07 14:16:01;;;;;;;;;;;;;;;;;;5068380;28;19932;-62
2023/09/07 14:18:27;;;;;;;;;;;;;;;;;;5069296;28;20280;-62
2023/09/07 14:20:57;;;;;;;;;;;;;;;;;;5066451;28;20038;-62
2023/09/07 14:23:23;;;;;;;;;;;;;;;;;;5050477;28;19931;-62
2023/09/07 14:25:49;;;;;;;;;;;;;;;;;;5048383;28;19920;-62
2023/09/07 14:28:15;;;;;;;;;;;;;;;;;;5072271;28;20389;-62
2023/09/07 14:30:41;;;;;;;;;;;;;;;;;;5056163;28;19960;-62
2023/09/07 14:33:07;;;;;;;;;;;;;;;;;;5073994;28;19921;-61
2023/09/07 14:35:33;;;;;;;;;;;;;;;;;;5074648;28;19925;-62
2023/09/07 14:37:59;;;;;;;;;;;;;;;;;;5074030;28;19985;-63
2023/09/07 14:40:25;;;;;;;;;;;;;;;;;;5072027;28;19928;-62
2023/09/07 14:42:50;;;;;;;;;;;;;;;;;;5073448;28;19924;-62
2023/09/07 14:45:16;;;;;;;;;;;;;;;;;;5072288;28;19924;-63
2023/09/07 14:47:42;;;;;;;;;;;;;;;;;;5074290;28;19924;-63
2023/09/07 14:50:08;;;;;;;;;;;;;;;;;;5072598;28;20305;-62
2023/09/07 14:52:40;;;;;;;;;;;;;;;;;;5075094;28;19921;-62
2023/09/07 14:55:06;;;;;;;;;;;;;;;;;;5073862;28;19927;-62
2023/09/07 14:57:32;;;;;;;;;;;;;;;;;;5074635;28;20568;-62
2023/09/07 14:59:58;;;;;;;;;;;;;;;;;;5055804;28;19978;-62
2023/09/07 15:02:24;;;;;;;;;;;;;;;;;;5074234;28;19921;-62
2023/09/07 15:04:49;;;;;;;;;;;;;;;;;;5053780;28;19920;-62
2023/09/07 15:07:15;;;;;;;;;;;;;;;;;;5056394;28;19950;-62
2023/09/07 15:09:41;;;;;;;;;;;;;;;;;;5068098;28;20032;-62
2023/09/07 15:12:07;;;;;;;;;;;;;;;;;;5069773;28;20302;-62
2023/09/07 15:14:33;;;;;;;;;;;;;;;;;;5063833;28;20125;-62
2023/09/07 15:16:59;;;;;;;;;;;;;;;;;;5051113;28;19931;-62
2023/09/07 15:19:25;;;;;;;;;;;;;;;;;;5072745;28;19928;-62
2023/09/07 15:21:51;;;;;;;;;;;;;;;;;;5074015;28;19931;-63
2023/09/07 15:24:17;;;;;;;;;;;;;;;;;;5056066;28;19925;-62
2023/09/07 15:26:43;;;;;;;;;;;;;;;;;;5072779;28;19920;-62
2023/09/07 15:29:08;;;;;;;;;;;;;;;;;;5056139;28;19939;-62
2023/09/07 15:31:34;;;;;;;;;;;;;;;;;;5073686;28;19928;-62
2023/09/07 15:34:00;;;;;;;;;;;;;;;;;;5066065;28;19947;-62
2023/09/07 15:36:26;;;;;;;;;;;;;;;;;;5054810;28;19924;-62
2023/09/07 15:38:52;;;;;;;;;;;;;;;;;;5069386;28;19936;-62
2023/09/07 15:41:18;;;;;;;;;;;;;;;;;;5063583;28;19924;-62
2023/09/07 15:43:44;;;;;;;;;;;;;;;;;;5069722;28;19927;-62
2023/09/07 15:46:10;;;;;;;;;;;;;;;;;;5066524;28;19929;-62
2023/09/07 15:48:36;;;;;;;;;;;;;;;;;;5071716;28;19935;-62
2023/09/07 15:51:02;;;;;;;;;;;;;;;;;;5053297;28;20011;-62
2023/09/07 15:53:28;;;;;;;;;;;;;;;;;;5072989;28;19938;-62
2023/09/07 15:55:54;;;;;;;;;;;;;;;;;;5052504;28;20309;-62
2023/09/07 15:58:20;;;;;;;;;;;;;;;;;;5072709;28;20011;-62
2023/09/07 16:00:46;;;;;;;;;;;;;;;;;;5072889;28;20389;-62
2023/09/07 16:03:12;;;;;;;;;;;;;;;;;;5073364;28;19921;-62
2023/09/07 16:05:37;;;;;;;;;;;;;;;;;;5070785;28;19924;-62
2023/09/07 16:08:04;;;;;;;;;;;;;;;;;;5073330;28;19920;-62
2023/09/07 16:10:30;;;;;;;;;;;;;;;;;;5048648;28;20010;-62
2023/09/07 16:12:55;;;;;;;;;;;;;;;;;;5045486;28;20011;-62
2023/09/07 16:15:21;;;;;;;;;;;;;;;;;;5066558;28;19933;-62
2023/09/07 16:17:47;;;;;;;;;;;;;;;;;;5068203;28;19972;-62
2023/09/07 16:20:14;;;;;;;;;;;;;;;;;;5059122;28;19924;-62
2023/09/07 16:22:40;;;;;;;;;;;;;;;;;;5067653;28;19963;-62
2023/09/07 16:25:06;;;;;;;;;;;;;;;;;;5071765;28;19963;-62
2023/09/07 16:27:37;;;;;;;;;;;;;;;;;;5049892;28;19984;-62
2023/09/07 16:30:03;;;;;;;;;;;;;;;;;;5068934;28;20332;-62
2023/09/07 16:32:29;;;;;;;;;;;;;;;;;;5051442;28;19921;-62
2023/09/07 16:34:55;;;;;;;;;;;;;;;;;;5065467;28;19935;-62
2023/09/07 16:37:26;;;;;;;;;;;;;;;;;;5065118;28;19935;-62
2023/09/07 16:39:51;;;;;;;;;;;;;;;;;;5068187;28;20432;-62
2023/09/07 16:42:17;;;;;;;;;;;;;;;;;;5066900;28;19920;-62
2023/09/07 16:44:43;;;;;;;;;;;;;;;;;;5068607;28;19995;-62